Etusivu
METAR-TAF:

METAR-TAF

Lentoasemat :

Tarton lentoasema

Tartto, Viro

Leveyspiiri: 58-18N, Pituuspiiri: 026-44E, korkeus merenpinnasta: 59 m

Tämänhetkinen sää

Tämä raportti tehtiin 32 minuuttia sitten, kello 18.50 UTC
Tuuli 4 kn lounaasta
Lämpötila 22°C
Kosteus 65%
Ilmanpaine 1006 hPa
Näkyvyys 10 km tai enemmän

METAR: EETU 211850Z AUTO 22004KT 9999 NCD 22/15 Q1006

Aika: 22:22 (19:22 UTC)

Sääennuste

Tämä raportti tehtiin 21 tuntia ja 12 minuuttia sitten, kello 22.10 UTC
Ennuste voimassa 20. päivästä klo 22 UTC - 21. päivään klo 03 UTC
Tuuli 2 kn eri suunnista
Näkyvyys: 3000 m
Hajanaisia pilviä 4000 ft:n korkeudessa
utua
Ajoittain
20. päivästä klo 22 UTC - 21. päivään klo 03 UTC
Näkyvyys: 0200 m
Hajonneita pilviä 200 ft:n korkeudessa
sumua

TAF: EETU 202210Z 2022/2103 VRB02KT 3000 BR SCT040 TEMPO 2022/2103 0200 FG BKN002

Säähavainnot ja -ennusteet yli 4000 lentoasemalta (METAR- ja TAF-raportit).

Käytössä olevat sääasemat on merkitty karttaan keltaisilla ja punaisilla pisteillä.

Aseta hiiri pisteen päälle nähdäksesi sääaseman nimen.

Klikkaa sitten nähdäksesi säähavainnot ja -ennusteet.

Kartan vaihtaminen: klikkaa mustalla rastilla varustettuja vihreitä pisteitä, niin voit zoomata sisään; viivalla varustettua vihreää pistettä, niin voit zoomata ulos tai vihreitä nuolia, niin pääset viereisille kartoille.


METAR-TAF: